Time,TemperatureF,DewpointF,PressureIn,WindDirection,WindDirectionDegrees,WindSpeedMPH,WindSpeedGustMPH,Humidity,HourlyPrecipIn,Conditions,Clouds,dailyrainin,SolarRadiationWatts/m^2,SoftwareType,DateUTC
2013-03-17 00:03:00,67.0,39.0,29.96,WSW,252,5.0,14.0,36,0.00,,,0.00,0.000000,,2013-03-17 04:03:00,
2013-03-17 00:10:00,66.0,40.0,29.96,WSW,244,4.0,13.0,39,0.00,,,0.00,0.000000,,2013-03-17 04:10:00,
2013-03-17 00:43:00,66.0,40.0,29.96,WSW,244,4.0,13.0,39,0.00,,,0.00,0.000000,,2013-03-17 04:43:00,
2013-03-17 00:53:00,66.0,40.0,29.96,WSW,244,4.0,13.0,39,0.00,,,0.00,0.000000,,2013-03-17 04:53:00,
2013-03-17 01:03:00,66.0,40.0,29.96,WSW,244,4.0,13.0,39,0.00,,,0.00,0.000000,,2013-03-17 05:03:00,
2013-03-17 01:10:00,59.0,40.0,29.97,SSW,210,3.0,14.0,49,0.00,,,0.00,0.000000,,2013-03-17 05:10:00,
2013-03-17 01:42:00,59.0,40.0,29.97,SSW,210,3.0,14.0,49,0.00,,,0.00,0.000000,,2013-03-17 05:42:00,
2013-03-17 01:52:00,59.0,40.0,29.97,SSW,210,3.0,14.0,49,0.00,,,0.00,0.000000,,2013-03-17 05:52:00,
2013-03-17 02:02:00,59.0,40.0,29.97,SSW,210,3.0,14.0,49,0.00,,,0.00,0.000000,,2013-03-17 06:02:00,
2013-03-17 02:10:00,56.0,42.0,29.98,WNW,287,4.0,7.0,60,0.00,,,0.00,0.000000,,2013-03-17 06:10:00,
2013-03-17 02:42:00,56.0,42.0,29.98,WNW,287,4.0,7.0,60,0.00,,,0.00,0.000000,,2013-03-17 06:42:00,
2013-03-17 02:53:00,56.0,42.0,29.98,WNW,287,4.0,7.0,60,0.00,,,0.00,0.000000,,2013-03-17 06:53:00,
2013-03-17 03:02:00,56.0,42.0,29.98,WNW,287,4.0,7.0,60,0.00,,,0.00,0.000000,,2013-03-17 07:02:00,
2013-03-17 03:10:00,51.0,41.0,29.99,ENE,77,4.0,7.0,68,0.00,,,0.00,0.000000,,2013-03-17 07:10:00,
2013-03-17 03:42:00,51.0,41.0,29.99,ENE,77,4.0,7.0,68,0.00,,,0.00,0.000000,,2013-03-17 07:42:00,
2013-03-17 03:52:00,51.0,41.0,29.99,ENE,77,4.0,7.0,68,0.00,,,0.00,0.000000,,2013-03-17 07:52:00,
2013-03-17 04:03:00,51.0,41.0,29.99,ENE,77,4.0,7.0,68,0.00,,,0.00,0.000000,,2013-03-17 08:03:00,
2013-03-17 04:10:00,50.0,42.0,29.99,SSW,208,2.0,3.0,75,0.00,,,0.00,0.000000,,2013-03-17 08:10:00,
2013-03-17 04:42:00,50.0,42.0,29.99,SSW,208,2.0,3.0,75,0.00,,,0.00,0.000000,,2013-03-17 08:42:00,
2013-03-17 04:52:00,50.0,42.0,29.99,SSW,208,2.0,3.0,75,0.00,,,0.00,0.000000,,2013-03-17 08:52:00,
2013-03-17 05:03:00,50.0,42.0,29.99,SSW,208,2.0,3.0,75,0.00,,,0.00,0.000000,,2013-03-17 09:03:00,
2013-03-17 05:10:00,49.0,43.0,29.99,NE,39,1.0,4.0,80,0.00,,,0.00,0.000000,,2013-03-17 09:10:00,
2013-03-17 05:43:00,49.0,43.0,29.99,NE,39,1.0,4.0,80,0.00,,,0.00,0.000000,,2013-03-17 09:43:00,
2013-03-17 05:53:00,49.0,43.0,29.99,NE,39,1.0,4.0,80,0.00,,,0.00,0.000000,,2013-03-17 09:53:00,
2013-03-17 06:03:00,49.0,43.0,29.99,NE,39,1.0,4.0,80,0.00,,,0.00,0.000000,,2013-03-17 10:03:00,
2013-03-17 06:10:00,47.0,43.0,30.01,ESE,122,1.0,2.0,85,0.00,,,0.00,0.000000,,2013-03-17 10:10:00,
2013-03-17 06:42:00,47.0,43.0,30.01,ESE,122,1.0,2.0,85,0.00,,,0.00,0.000000,,2013-03-17 10:42:00,
2013-03-17 06:53:00,47.0,43.0,30.01,ESE,122,1.0,2.0,85,0.00,,,0.00,0.000000,,2013-03-17 10:53:00,
2013-03-17 07:03:00,47.0,43.0,30.01,ESE,122,1.0,2.0,85,0.00,,,0.00,0.000000,,2013-03-17 11:03:00,
2013-03-17 07:10:00,44.0,41.0,30.01,SSE,162,2.0,3.0,90,0.00,,,0.00,0.000000,,2013-03-17 11:10:00,
2013-03-17 07:43:00,44.0,41.0,30.01,SSE,162,2.0,3.0,90,0.00,,,0.00,0.000000,,2013-03-17 11:43:00,
2013-03-17 07:52:00,44.0,41.0,30.01,SSE,162,2.0,3.0,90,0.00,,,0.00,0.000000,,2013-03-17 11:52:00,
2013-03-17 08:02:00,44.0,41.0,30.01,SSE,162,2.0,3.0,90,0.00,,,0.00,0.000000,,2013-03-17 12:02:00,
2013-03-17 08:10:00,46.0,43.0,30.03,NNE,12,1.0,4.0,90,0.00,,,0.00,10.000000,,2013-03-17 12:10:00,
2013-03-17 08:33:00,46.0,43.0,30.03,NNE,12,1.0,4.0,90,0.00,,,0.00,10.000000,,2013-03-17 12:33:00,
2013-03-17 08:43:00,46.0,43.0,30.03,NNE,12,1.0,4.0,90,0.00,,,0.00,10.000000,,2013-03-17 12:43:00,
2013-03-17 08:52:00,46.0,43.0,30.03,NNE,12,1.0,4.0,90,0.00,,,0.00,10.000000,,2013-03-17 12:52:00,
2013-03-17 09:02:00,46.0,43.0,30.03,NNE,12,1.0,4.0,90,0.00,,,0.00,10.000000,,2013-03-17 13:02:00,
2013-03-17 09:10:00,53.0,45.0,30.05,East,88,1.0,3.0,75,0.00,,,0.00,112.000000,,2013-03-17 13:10:00,
2013-03-17 09:43:00,53.0,45.0,30.05,East,88,1.0,3.0,75,0.00,,,0.00,112.000000,,2013-03-17 13:43:00,
2013-03-17 09:53:00,53.0,45.0,30.05,East,88,1.0,3.0,75,0.00,,,0.00,112.000000,,2013-03-17 13:53:00,
2013-03-17 10:02:00,53.0,45.0,30.05,East,88,1.0,3.0,75,0.00,,,0.00,112.000000,,2013-03-17 14:02:00,
2013-03-17 10:10:00,63.0,46.0,30.05,SW,222,1.0,5.0,53,0.00,,,0.00,218.000000,,2013-03-17 14:10:00,
2013-03-17 10:33:00,63.0,46.0,30.05,SW,222,1.0,5.0,53,0.00,,,0.00,218.000000,,2013-03-17 14:33:00,
2013-03-17 10:43:00,63.0,46.0,30.05,SW,222,1.0,5.0,53,0.00,,,0.00,218.000000,,2013-03-17 14:43:00,
2013-03-17 10:53:00,63.0,46.0,30.05,SW,222,1.0,5.0,53,0.00,,,0.00,218.000000,,2013-03-17 14:53:00,
2013-03-17 11:02:00,63.0,46.0,30.05,SW,222,1.0,5.0,53,0.00,,,0.00,218.000000,,2013-03-17 15:02:00,
2013-03-17 11:10:00,67.0,44.0,30.06,SSE,150,2.0,9.0,43,0.00,,,0.00,413.000000,,2013-03-17 15:10:00,
2013-03-17 11:33:00,67.0,44.0,30.06,SSE,150,2.0,9.0,43,0.00,,,0.00,413.000000,,2013-03-17 15:33:00,
2013-03-17 11:43:00,67.0,44.0,30.06,SSE,150,2.0,9.0,43,0.00,,,0.00,413.000000,,2013-03-17 15:43:00,
2013-03-17 11:53:00,67.0,44.0,30.06,SSE,150,2.0,9.0,43,0.00,,,0.00,413.000000,,2013-03-17 15:53:00,
2013-03-17 12:03:00,67.0,44.0,30.06,SSE,150,2.0,9.0,43,0.00,,,0.00,413.000000,,2013-03-17 16:03:00,
2013-03-17 12:10:00,76.0,46.0,30.05,ENE,75,4.0,10.0,34,0.00,,,0.00,735.000000,,2013-03-17 16:10:00,
2013-03-17 12:34:00,76.0,46.0,30.05,ENE,75,4.0,10.0,34,0.00,,,0.00,735.000000,,2013-03-17 16:34:00,
2013-03-17 12:43:00,76.0,46.0,30.05,ENE,75,4.0,10.0,34,0.00,,,0.00,735.000000,,2013-03-17 16:43:00,
2013-03-17 12:53:00,76.0,46.0,30.05,ENE,75,4.0,10.0,34,0.00,,,0.00,735.000000,,2013-03-17 16:53:00,
2013-03-17 13:03:00,76.0,46.0,30.05,ENE,75,4.0,10.0,34,0.00,,,0.00,735.000000,,2013-03-17 17:03:00,
2013-03-17 13:10:00,79.0,45.0,30.05,NE,40,6.0,14.0,30,0.00,,,0.00,1034.000000,,2013-03-17 17:10:00,
2013-03-17 13:42:00,79.0,45.0,30.05,NE,40,6.0,14.0,30,0.00,,,0.00,1034.000000,,2013-03-17 17:42:00,
2013-03-17 13:53:00,79.0,45.0,30.05,NE,40,6.0,14.0,30,0.00,,,0.00,1034.000000,,2013-03-17 17:53:00,
2013-03-17 14:02:00,79.0,45.0,30.05,NE,40,6.0,14.0,30,0.00,,,0.00,1034.000000,,2013-03-17 18:02:00,
2013-03-17 14:10:00,77.0,46.0,30.01,NE,55,7.0,19.0,33,0.00,,,0.00,1020.000000,,2013-03-17 18:10:00,
2013-03-17 14:42:00,77.0,46.0,30.01,NE,55,7.0,19.0,33,0.00,,,0.00,1020.000000,,2013-03-17 18:42:00,
2013-03-17 14:52:00,77.0,46.0,30.01,NE,55,7.0,19.0,33,0.00,,,0.00,1020.000000,,2013-03-17 18:52:00,
2013-03-17 15:02:00,77.0,46.0,30.01,NE,55,7.0,19.0,33,0.00,,,0.00,1020.000000,,2013-03-17 19:02:00,
2013-03-17 15:10:00,70.0,52.0,30.01,NNE,26,10.0,26.0,52,0.00,,,0.00,829.000000,,2013-03-17 19:10:00,
2013-03-17 15:42:00,70.0,52.0,30.01,NNE,26,10.0,26.0,52,0.00,,,0.00,829.000000,,2013-03-17 19:42:00,
2013-03-17 15:53:00,70.0,52.0,30.01,NNE,26,10.0,26.0,52,0.00,,,0.00,829.000000,,2013-03-17 19:53:00,
2013-03-17 16:02:00,70.0,52.0,30.01,NNE,26,10.0,26.0,52,0.00,,,0.00,829.000000,,2013-03-17 20:02:00,
2013-03-17 16:10:00,69.0,51.0,30.00,NE,55,10.0,23.0,53,0.00,,,0.00,652.000000,,2013-03-17 20:10:00,
2013-03-17 16:33:00,69.0,51.0,30.00,NE,55,10.0,23.0,53,0.00,,,0.00,652.000000,,2013-03-17 20:33:00,
2013-03-17 16:43:00,69.0,51.0,30.00,NE,55,10.0,23.0,53,0.00,,,0.00,652.000000,,2013-03-17 20:43:00,
2013-03-17 16:52:00,69.0,51.0,30.00,NE,55,10.0,23.0,53,0.00,,,0.00,652.000000,,2013-03-17 20:52:00,
2013-03-17 17:03:00,69.0,51.0,30.00,NE,55,10.0,23.0,53,0.00,,,0.00,652.000000,,2013-03-17 21:03:00,
2013-03-17 17:10:00,62.0,47.0,30.03,NE,50,10.0,21.0,58,0.00,,,0.00,389.000000,,2013-03-17 21:10:00,
2013-03-17 17:33:00,62.0,47.0,30.03,NE,50,10.0,21.0,58,0.00,,,0.00,389.000000,,2013-03-17 21:33:00,
2013-03-17 17:43:00,62.0,47.0,30.03,NE,50,10.0,21.0,58,0.00,,,0.00,389.000000,,2013-03-17 21:43:00,
2013-03-17 17:53:00,62.0,47.0,30.03,NE,50,10.0,21.0,58,0.00,,,0.00,389.000000,,2013-03-17 21:53:00,
2013-03-17 18:03:00,62.0,47.0,30.03,NE,50,10.0,21.0,58,0.00,,,0.00,389.000000,,2013-03-17 22:03:00,
2013-03-17 18:10:00,61.0,47.0,30.06,ENE,58,8.0,20.0,60,0.00,,,0.00,344.000000,,2013-03-17 22:10:00,
2013-03-17 18:42:00,61.0,47.0,30.06,ENE,58,8.0,20.0,60,0.00,,,0.00,344.000000,,2013-03-17 22:42:00,
2013-03-17 18:53:00,61.0,47.0,30.06,ENE,58,8.0,20.0,60,0.00,,,0.00,344.000000,,2013-03-17 22:53:00,
2013-03-17 19:03:00,61.0,47.0,30.06,ENE,58,8.0,20.0,60,0.00,,,0.00,344.000000,,2013-03-17 23:03:00,
2013-03-17 19:10:00,56.0,44.0,30.07,NE,38,8.0,21.0,64,0.00,,,0.00,113.000000,,2013-03-17 23:10:00,
2013-03-17 19:33:00,56.0,44.0,30.07,NE,38,8.0,21.0,64,0.00,,,0.00,113.000000,,2013-03-17 23:33:00,
2013-03-17 19:43:00,56.0,44.0,30.07,NE,38,8.0,21.0,64,0.00,,,0.00,113.000000,,2013-03-17 23:43:00,
2013-03-17 19:53:00,56.0,44.0,30.07,NE,38,8.0,21.0,64,0.00,,,0.00,113.000000,,2013-03-17 23:53:00,
2013-03-17 20:03:00,56.0,44.0,30.07,NE,38,8.0,21.0,64,0.00,,,0.00,113.000000,,2013-03-18 00:03:00,
2013-03-17 21:10:00,51.0,40.0,30.16,NNE,31,6.0,19.0,67,-99.99,,,0.00,0.000000,,2013-03-18 01:10:00,
2013-03-17 21:33:00,51.0,40.0,30.16,NNE,31,6.0,19.0,67,-99.99,,,0.00,0.000000,,2013-03-18 01:33:00,
2013-03-17 21:42:00,51.0,40.0,30.16,NNE,31,6.0,19.0,67,-99.99,,,0.00,0.000000,,2013-03-18 01:42:00,
2013-03-17 21:52:00,51.0,40.0,30.16,NNE,31,6.0,19.0,67,-99.99,,,0.00,0.000000,,2013-03-18 01:52:00,
2013-03-17 22:02:00,51.0,40.0,30.16,NNE,31,6.0,19.0,67,-99.99,,,0.00,0.000000,,2013-03-18 02:02:00,
2013-03-17 22:10:00,49.0,40.0,30.19,NE,51,10.0,22.0,71,0.00,,,0.00,0.000000,,2013-03-18 02:10:00,
2013-03-17 22:42:00,49.0,40.0,30.19,NE,51,10.0,22.0,71,0.00,,,0.00,0.000000,,2013-03-18 02:42:00,
2013-03-17 22:52:00,49.0,40.0,30.19,NE,51,10.0,22.0,71,0.00,,,0.00,0.000000,,2013-03-18 02:52:00,
2013-03-17 23:03:00,49.0,40.0,30.19,NE,51,10.0,22.0,71,0.00,,,0.00,0.000000,,2013-03-18 03:03:00,
2013-03-17 23:10:00,48.0,40.0,30.21,NE,48,7.0,19.0,74,0.00,,,0.00,0.000000,,2013-03-18 03:10:00,
2013-03-17 23:42:00,48.0,40.0,30.21,NE,48,7.0,19.0,74,0.00,,,0.00,0.000000,,2013-03-18 03:42:00,
2013-03-17 23:53:00,48.0,40.0,30.21,NE,48,7.0,19.0,74,0.00,,,0.00,0.000000,,2013-03-18 03:53:00,